Time;durP1;ratioP1;P1;durP2;ratioP2;P2;SDS_P1;SDS_P2;PMS_P1;PMS_P2;Temp;Humidity;BMP_temperature;BMP_pressure;BME280_temperature;BME280_humidity;BME280_pressure;Samples;Min_cycle;Max_cycle;Signal;HPM_P1;HPM_P2
2023/04/09 00:01:12;;;;;;;;;;;;;;;6.64;72.01;101099.59;5327533;32;44844;-70
2023/04/09 00:04:13;;;;;;;;;;;;;;;7.00;70.93;101099.13;5319776;32;33831;-73
2023/04/09 00:07:16;;;;;;;;;;;;;;;6.91;70.55;101101.87;5311537;32;32260;-73
2023/04/09 00:10:18;;;;;;;;;;;;;;;6.48;71.68;101099.75;5328823;32;34300;-74
2023/04/09 00:13:20;;;;;;;;;;;;;;;6.55;71.81;101107.53;5330454;32;33464;-70
2023/04/09 00:16:39;;;;;;;;;;;;;;;6.57;71.96;101103.12;5340831;32;33428;-73
2023/04/09 00:19:41;;;;;;;;;;;;;;;7.97;66.27;101101.16;5326371;32;44515;-70
2023/04/09 00:22:43;;;;;;;;;;;;;;;7.85;64.93;101096.12;5332705;32;33577;-70
2023/04/09 00:25:45;;;;;;;;;;;;;;;7.44;67.22;101099.41;5307385;32;35027;-70
2023/04/09 00:28:47;;;;;;;;;;;;;;;7.12;68.21;101098.09;5307789;32;33803;-70
2023/04/09 00:31:49;;;;;;;;;;;;;;;7.21;69.88;101102.34;5291469;32;34264;-70
2023/04/09 00:34:51;;;;;;;;;;;;;;;6.91;69.94;101099.25;5319264;32;33256;-71
2023/04/09 00:37:53;;;;;;;;;;;;;;;6.88;69.97;101099.28;5335750;32;32880;-74
2023/04/09 00:40:55;;;;;;;;;;;;;;;6.89;70.05;101098.44;5325130;32;33743;-73
2023/04/09 00:43:57;;;;;;;;;;;;;;;6.83;70.45;101095.00;5332888;32;33878;-70
2023/04/09 00:46:59;;;;;;;;;;;;;;;7.19;68.67;101094.50;5312275;32;33709;-71
2023/04/09 00:50:02;;;;;;;;;;;;;;;7.07;68.86;101092.94;5316868;32;34085;-74
2023/04/09 00:53:04;;;;;;;;;;;;;;;6.30;72.95;101099.94;5317451;32;35187;-70
2023/04/09 00:56:06;;;;;;;;;;;;;;;6.95;71.25;101103.53;5296371;32;33787;-73
2023/04/09 00:59:08;;;;;;;;;;;;;;;7.09;70.13;101087.72;5308661;32;33680;-73
2023/04/09 01:02:11;;;;;;;;;;;;;;;6.92;68.85;101105.34;5306579;32;32212;-73
2023/04/09 01:05:13;;;;;;;;;;;;;;;7.18;68.44;101092.78;5306751;32;36063;-70
2023/04/09 01:08:30;;;;;;;;;;;;;;;7.03;70.17;101088.66;5307548;32;34298;-70
2023/04/09 01:11:55;;;;;;;;;;;;;;;7.01;69.92;101093.00;5301200;32;33589;-70
2023/04/09 01:15:05;;;;;;;;;;;;;;;7.60;66.89;101085.22;5309293;32;34462;-74
2023/04/09 01:18:10;;;;;;;;;;;;;;;7.28;68.02;101088.31;5295382;32;33734;-70
2023/04/09 01:21:13;;;;;;;;;;;;;;;7.47;67.01;101089.78;5308304;32;44610;-73
2023/04/09 01:24:15;;;;;;;;;;;;;;;6.42;71.21;101081.53;5297540;32;32345;-73
2023/04/09 01:27:17;;;;;;;;;;;;;;;6.89;68.76;101098.44;5316739;32;33035;-71
2023/04/09 01:30:19;;;;;;;;;;;;;;;6.56;70.19;101077.91;5281751;32;34314;-71
2023/04/09 01:33:21;;;;;;;;;;;;;;;7.58;67.00;101087.84;5308384;32;34345;-71
2023/04/09 01:36:23;;;;;;;;;;;;;;;8.25;63.42;101082.38;5339923;32;34094;-71
2023/04/09 01:39:26;;;;;;;;;;;;;;;7.99;64.25;101093.31;5299265;32;34010;-73
2023/04/09 01:42:27;;;;;;;;;;;;;;;7.70;65.72;101091.16;5307674;32;33741;-71
2023/04/09 01:45:29;;;;;;;;;;;;;;;7.65;66.44;101093.84;5294847;32;32943;-74
2023/04/09 01:48:31;;;;;;;;;;;;;;;8.19;64.38;101090.31;5320243;32;33322;-69
2023/04/09 01:51:33;;;;;;;;;;;;;;;7.13;67.90;101088.50;5324259;32;34195;-72
2023/04/09 01:54:35;;;;;;;;;;;;;;;6.94;69.38;101087.87;5318544;32;33176;-73
2023/04/09 01:57:37;;;;;;;;;;;;;;;7.18;68.18;101089.31;5328408;32;33768;-73
2023/04/09 02:00:39;;;;;;;;;;;;;;;7.65;66.94;101085.13;5326014;32;33015;-70
2023/04/09 02:03:50;;;;;;;;;;;;;;;7.66;66.73;101089.47;5331741;32;44485;-71
2023/04/09 02:07:11;;;;;;;;;;;;;;;7.21;68.90;101091.88;5285320;32;36530;-72
2023/04/09 02:10:13;;;;;;;;;;;;;;;7.80;66.73;101088.37;5321226;32;44392;-75
2023/04/09 02:13:15;;;;;;;;;;;;;;;7.96;65.23;101088.97;5336066;32;34442;-70
2023/04/09 02:16:17;;;;;;;;;;;;;;;8.33;64.15;101083.06;5328676;32;33215;-70
2023/04/09 02:19:19;;;;;;;;;;;;;;;7.80;65.58;101087.50;5326784;32;35645;-70
2023/04/09 02:22:21;;;;;;;;;;;;;;;6.86;69.47;101088.00;5320831;32;33458;-70
2023/04/09 02:25:22;;;;;;;;;;;;;;;7.14;69.29;101085.88;5322649;32;34432;-74
2023/04/09 02:28:27;;;;;;;;;;;;;;;7.33;68.83;101083.84;5298259;32;33819;-73
2023/04/09 02:31:29;;;;;;;;;;;;;;;7.00;70.35;101086.06;5273390;32;33506;-75
2023/04/09 02:34:31;;;;;;;;;;;;;;;7.17;70.66;101082.38;5334444;32;34173;-70
2023/04/09 02:37:33;;;;;;;;;;;;;;;7.03;70.13;101085.19;5327867;32;36520;-72
2023/04/09 02:40:37;;;;;;;;;;;;;;;7.24;68.59;101087.47;5336826;32;33328;-69
2023/04/09 02:43:39;;;;;;;;;;;;;;;7.14;69.69;101082.38;5310592;32;33849;-70
2023/04/09 02:46:42;;;;;;;;;;;;;;;7.01;69.61;101082.56;5326036;32;45202;-70
2023/04/09 02:49:44;;;;;;;;;;;;;;;6.70;69.21;101083.84;5307278;32;34061;-70
2023/04/09 02:52:46;;;;;;;;;;;;;;;6.90;68.74;101087.09;5322364;32;33533;-71
2023/04/09 02:55:48;;;;;;;;;;;;;;;6.96;68.94;101073.94;5337502;32;34597;-75
2023/04/09 02:58:52;;;;;;;;;;;;;;;6.83;70.53;101080.22;5309388;32;33670;-73
2023/04/09 03:01:55;;;;;;;;;;;;;;;6.64;71.01;101079.56;5327105;32;34235;-74
2023/04/09 03:04:57;;;;;;;;;;;;;;;7.41;68.32;101074.16;5312486;32;34342;-73
2023/04/09 03:07:59;;;;;;;;;;;;;;;6.90;69.15;101083.59;5309164;32;33752;-73
2023/04/09 03:11:00;;;;;;;;;;;;;;;6.79;70.34;101083.72;5304319;32;33339;-73
2023/04/09 03:14:02;;;;;;;;;;;;;;;6.89;68.36;101082.75;5309382;32;33168;-73
2023/04/09 03:17:04;;;;;;;;;;;;;;;7.31;67.35;101083.03;5323818;32;33063;-71
2023/04/09 03:20:06;;;;;;;;;;;;;;;7.01;68.33;101082.56;5296219;32;33622;-70
2023/04/09 03:23:09;;;;;;;;;;;;;;;7.37;68.06;101079.47;5328855;32;33024;-74
2023/04/09 03:26:11;;;;;;;;;;;;;;;7.15;68.33;101081.50;5325216;32;44808;-70
2023/04/09 03:29:12;;;;;;;;;;;;;;;7.10;69.02;101081.59;5326678;32;33094;-73
2023/04/09 03:32:14;;;;;;;;;;;;;;;7.83;66.35;101084.81;5316085;32;32975;-69
2023/04/09 03:35:19;;;;;;;;;;;;;;;7.01;69.82;101087.78;5310957;32;33135;-73
2023/04/09 03:38:21;;;;;;;;;;;;;;;6.40;72.45;101090.28;5322330;32;33703;-70
2023/04/09 03:41:24;;;;;;;;;;;;;;;7.01;71.76;101087.78;5309769;32;34396;-72
2023/04/09 03:44:26;;;;;;;;;;;;;;;6.63;74.28;101090.87;5323147;32;33119;-70
2023/04/09 03:47:28;;;;;;;;;;;;;;;7.07;72.72;101086.84;5307634;32;33470;-72
2023/04/09 03:50:30;;;;;;;;;;;;;;;6.98;72.54;101084.37;5316689;32;34207;-70
2023/04/09 03:53:32;;;;;;;;;;;;;;;6.84;73.42;101088.91;5316994;32;33493;-72
2023/04/09 03:56:34;;;;;;;;;;;;;;;6.74;73.23;101088.16;5297618;32;33254;-73
2023/04/09 03:59:36;;;;;;;;;;;;;;;6.32;75.24;101092.97;5322860;32;33599;-70
2023/04/09 04:02:38;;;;;;;;;;;;;;;6.49;74.37;101093.66;5310714;32;33576;-70
2023/04/09 04:05:41;;;;;;;;;;;;;;;6.96;74.05;101094.84;5311121;32;45640;-73
2023/04/09 04:08:43;;;;;;;;;;;;;;;6.98;73.13;101098.28;5307926;32;34268;-73
2023/04/09 04:11:45;;;;;;;;;;;;;;;7.98;68.80;101089.78;5315562;32;33738;-73
2023/04/09 04:14:47;;;;;;;;;;;;;;;6.80;72.53;101103.75;5317766;32;33469;-75
2023/04/09 04:17:49;;;;;;;;;;;;;;;7.02;71.54;101096.53;5294344;32;36533;-72
2023/04/09 04:20:51;;;;;;;;;;;;;;;7.33;70.75;101095.19;5322320;32;35060;-73
2023/04/09 04:23:53;;;;;;;;;;;;;;;6.76;73.56;101094.19;5319162;32;33055;-71
2023/04/09 04:26:55;;;;;;;;;;;;;;;7.14;71.46;101095.47;5320212;32;33870;-73
2023/04/09 04:29:57;;;;;;;;;;;;;;;7.12;70.78;101098.09;5295723;32;33807;-70
2023/04/09 04:32:59;;;;;;;;;;;;;;;6.80;70.49;101106.34;5314138;32;32981;-71
2023/04/09 04:36:05;;;;;;;;;;;;;;;6.64;71.39;101105.69;5323558;32;33643;-70
2023/04/09 04:39:07;;;;;;;;;;;;;;;6.89;70.99;101105.38;5324042;32;34125;-70
2023/04/09 04:42:09;;;;;;;;;;;;;;;6.07;74.70;101125.41;5317996;32;34008;-70
2023/04/09 04:45:11;;;;;;;;;;;;;;;6.82;74.19;101114.16;5309210;32;44781;-70
2023/04/09 04:48:13;;;;;;;;;;;;;;;7.20;72.47;101116.28;5323132;32;33562;-74
2023/04/09 04:51:14;;;;;;;;;;;;;;;6.64;73.84;101117.88;5312650;32;35306;-73
2023/04/09 04:54:16;;;;;;;;;;;;;;;7.21;71.83;101118.03;5327700;32;33794;-73
2023/04/09 04:57:18;;;;;;;;;;;;;;;6.97;71.94;101111.37;5330744;32;33843;-70
2023/04/09 05:00:20;;;;;;;;;;;;;;;6.40;74.21;101126.84;5302844;32;33851;-73
2023/04/09 05:03:22;;;;;;;;;;;;;;;7.24;70.70;101113.62;5320556;32;33835;-74
2023/04/09 05:06:28;;;;;;;;;;;;;;;7.18;70.63;101118.06;5300734;32;33563;-73
2023/04/09 05:09:30;;;;;;;;;;;;;;;7.56;68.61;101121.00;5309189;32;33644;-70
2023/04/09 05:12:32;;;;;;;;;;;;;;;7.47;69.44;101125.50;5307037;32;33731;-73
2023/04/09 05:15:36;;;;;;;;;;;;;;;6.81;70.79;101118.53;5310766;32;33911;-70
2023/04/09 05:18:38;;;;;;;;;;;;;;;6.56;72.13;101132.75;5322405;32;34618;-74
2023/04/09 05:21:40;;;;;;;;;;;;;;;6.85;72.74;101124.59;5293847;32;36128;-71
2023/04/09 05:24:42;;;;;;;;;;;;;;;6.39;74.92;101139.03;5335154;32;33217;-72
2023/04/09 05:27:44;;;;;;;;;;;;;;;6.96;71.74;101131.44;5320523;32;35094;-71
2023/04/09 05:30:46;;;;;;;;;;;;;;;6.46;73.69;101140.69;5293318;32;33697;-70
2023/04/09 05:33:48;;;;;;;;;;;;;;;7.23;70.91;101132.81;5306848;32;34742;-75
2023/04/09 05:36:50;;;;;;;;;;;;;;;7.48;71.05;101132.47;5317500;32;35310;-71
2023/04/09 05:39:52;;;;;;;;;;;;;;;7.60;68.88;101134.94;5318146;32;34847;-71
2023/04/09 05:42:54;;;;;;;;;;;;;;;6.92;70.16;101134.09;5308874;32;34075;-72
2023/04/09 05:45:56;;;;;;;;;;;;;;;7.81;69.07;101142.44;5320386;32;34467;-70
2023/04/09 05:48:58;;;;;;;;;;;;;;;8.70;64.99;101135.69;5307047;32;33224;-73
2023/04/09 05:52:00;;;;;;;;;;;;;;;8.40;64.59;101142.34;5316281;32;33160;-70
2023/04/09 05:55:02;;;;;;;;;;;;;;;7.44;68.73;101142.13;5304338;32;33475;-71
2023/04/09 05:58:04;;;;;;;;;;;;;;;7.70;68.75;101146.09;5321182;32;33611;-73
2023/04/09 06:01:06;;;;;;;;;;;;;;;7.65;68.24;101150.53;5322335;32;33551;-71
2023/04/09 06:04:08;;;;;;;;;;;;;;;8.13;66.69;101152.37;5321024;32;34096;-72
2023/04/09 06:07:10;;;;;;;;;;;;;;;8.80;64.29;101146.81;5295014;32;34426;-70
2023/04/09 06:10:12;;;;;;;;;;;;;;;8.21;64.95;101157.47;5290483;32;910092;-74
2023/04/09 06:13:14;;;;;;;;;;;;;;;7.15;68.32;101163.44;5335890;32;33081;-71
2023/04/09 06:16:16;;;;;;;;;;;;;;;7.89;66.17;101155.41;5311732;32;33574;-74
2023/04/09 06:19:18;;;;;;;;;;;;;;;6.95;70.13;101161.03;5307725;32;33104;-71
2023/04/09 06:22:20;;;;;;;;;;;;;;;8.04;67.27;101155.13;5325661;32;34128;-70
2023/04/09 06:25:22;;;;;;;;;;;;;;;8.32;65.59;101150.31;5295420;32;33030;-73
2023/04/09 06:28:24;;;;;;;;;;;;;;;8.12;66.13;101155.91;5319603;32;33667;-71
2023/04/09 06:31:26;;;;;;;;;;;;;;;8.13;66.03;101160.25;5273206;32;33766;-71
2023/04/09 06:34:28;;;;;;;;;;;;;;;8.33;64.27;101159.03;5334003;32;34025;-71
2023/04/09 06:37:30;;;;;;;;;;;;;;;7.71;66.58;101153.06;5302098;32;34095;-71
2023/04/09 06:40:32;;;;;;;;;;;;;;;8.24;64.04;101156.56;5309150;32;33741;-69
2023/04/09 06:43:35;;;;;;;;;;;;;;;7.96;64.49;101156.16;5322205;32;33347;-73
2023/04/09 06:46:37;;;;;;;;;;;;;;;7.83;65.01;101160.72;5296942;32;33364;-73
2023/04/09 06:49:39;;;;;;;;;;;;;;;8.25;64.89;101158.31;5323870;32;33828;-73
2023/04/09 06:52:41;;;;;;;;;;;;;;;7.58;66.93;101161.09;5321356;32;44599;-73
2023/04/09 06:55:43;;;;;;;;;;;;;;;7.69;66.70;101160.94;5332338;32;33357;-73
2023/04/09 06:58:46;;;;;;;;;;;;;;;7.20;66.81;101163.34;5313513;32;37021;-73
2023/04/09 07:01:48;;;;;;;;;;;;;;;7.42;66.44;101161.34;5306219;32;33029;-74
2023/04/09 07:04:51;;;;;;;;;;;;;;;8.38;64.54;101175.56;5306476;32;33616;-70
2023/04/09 07:07:53;;;;;;;;;;;;;;;9.00;62.89;101170.03;5315371;32;35588;-70
2023/04/09 07:10:55;;;;;;;;;;;;;;;8.95;63.21;101176.25;5333335;32;34491;-71
2023/04/09 07:13:57;;;;;;;;;;;;;;;7.50;65.69;101181.25;5315154;32;34251;-73
2023/04/09 07:16:59;;;;;;;;;;;;;;;8.26;62.56;101179.22;5324272;32;33221;-71
2023/04/09 07:20:01;;;;;;;;;;;;;;;8.62;61.46;101175.09;5307823;32;33183;-73
2023/04/09 07:23:03;;;;;;;;;;;;;;;8.53;62.15;101179.66;5303431;32;34298;-73
2023/04/09 07:26:05;;;;;;;;;;;;;;;8.71;61.23;101184.56;5324288;32;33692;-70
2023/04/09 07:29:07;;;;;;;;;;;;;;;7.45;65.29;101198.75;5309785;32;33195;-73
2023/04/09 07:32:09;;;;;;;;;;;;;;;7.58;64.09;101191.62;5303929;32;34469;-73
2023/04/09 07:35:11;;;;;;;;;;;;;;;8.75;61.06;101193.22;5309606;32;45074;-73
2023/04/09 07:38:13;;;;;;;;;;;;;;;8.86;59.30;101186.88;5337162;32;33076;-74
2023/04/09 07:41:15;;;;;;;;;;;;;;;8.62;59.37;101185.59;5313334;32;34457;-70
2023/04/09 07:44:17;;;;;;;;;;;;;;;8.75;57.88;101182.75;5328838;32;33676;-70
2023/04/09 07:47:20;;;;;;;;;;;;;;;8.45;58.04;101192.91;5333130;32;33583;-70
2023/04/09 07:50:22;;;;;;;;;;;;;;;8.73;59.13;101190.63;5322953;32;34407;-70
2023/04/09 07:53:24;;;;;;;;;;;;;;;9.22;56.48;101187.94;5323081;32;33135;-71
2023/04/09 07:56:26;;;;;;;;;;;;;;;9.26;56.89;101193.94;5296212;32;33141;-71
2023/04/09 07:59:28;;;;;;;;;;;;;;;10.56;51.65;101197.06;5318425;32;33865;-71
2023/04/09 08:02:30;;;;;;;;;;;;;;;9.23;55.80;101194.91;5311469;32;33547;-69
2023/04/09 08:05:33;;;;;;;;;;;;;;;9.12;56.71;101199.47;5305321;32;35027;-73
2023/04/09 08:08:35;;;;;;;;;;;;;;;11.09;52.88;101185.97;5318848;32;32970;-74
2023/04/09 08:11:37;;;;;;;;;;;;;;;10.23;54.55;101195.28;5314092;32;33877;-74
2023/04/09 08:14:38;;;;;;;;;;;;;;;10.38;54.30;101200.16;5327743;32;33504;-73
2023/04/09 08:17:40;;;;;;;;;;;;;;;10.12;53.08;101197.28;5321110;32;43618;-70
2023/04/09 08:20:44;;;;;;;;;;;;;;;11.87;48.41;101194.19;5318022;32;33018;-74
2023/04/09 08:23:46;;;;;;;;;;;;;;;11.42;49.05;101186.75;5305694;32;33336;-71
2023/04/09 08:26:48;;;;;;;;;;;;;;;10.99;51.32;101209.03;5310462;32;34482;-74
2023/04/09 08:29:50;;;;;;;;;;;;;;;10.25;51.77;101209.25;5309353;32;33137;-71
2023/04/09 08:32:52;;;;;;;;;;;;;;;11.00;50.90;101207.28;5293143;32;34302;-74
2023/04/09 08:35:55;;;;;;;;;;;;;;;10.63;51.99;101205.66;5322370;32;34028;-72
2023/04/09 08:38:59;;;;;;;;;;;;;;;11.35;49.18;101195.75;5327648;32;33233;-73
2023/04/09 08:42:01;;;;;;;;;;;;;;;10.88;50.96;101210.22;5301761;32;34879;-70
2023/04/09 08:45:04;;;;;;;;;;;;;;;11.05;50.48;101206.25;5303238;32;33459;-71
2023/04/09 08:48:05;;;;;;;;;;;;;;;10.83;51.49;101213.88;5308930;32;33639;-70
2023/04/09 08:51:07;;;;;;;;;;;;;;;11.31;49.44;101210.75;5311453;32;34178;-71
2023/04/09 08:54:09;;;;;;;;;;;;;;;11.08;50.58;101208.81;5327970;32;33921;-70
2023/04/09 08:57:11;;;;;;;;;;;;;;;11.86;47.22;101213.56;5315292;32;44541;-70
2023/04/09 09:00:13;;;;;;;;;;;;;;;12.23;47.78;101225.53;5310169;32;33633;-75
2023/04/09 09:03:16;;;;;;;;;;;;;;;11.27;50.63;101213.50;5298386;32;33607;-74
2023/04/09 09:06:28;;;;;;;;;;;;;;;11.19;50.71;101234.78;5309845;32;33272;-71
2023/04/09 09:09:30;;;;;;;;;;;;;;;12.34;48.03;101223.41;5308833;32;33627;-74
2023/04/09 09:12:33;;;;;;;;;;;;;;;11.60;49.59;101227.47;5322056;32;33924;-71
2023/04/09 09:15:35;;;;;;;;;;;;;;;12.58;47.55;101230.50;5295213;32;34316;-71
2023/04/09 09:18:38;;;;;;;;;;;;;;;11.63;49.56;101227.38;5333140;32;33742;-74
2023/04/09 09:21:40;;;;;;;;;;;;;;;11.92;49.15;101230.03;5307434;32;44058;-74
2023/04/09 09:24:47;;;;;;;;;;;;;;;11.32;50.94;101233.53;5311848;32;34310;-71
2023/04/09 09:27:51;;;;;;;;;;;;;;;12.91;45.58;101217.91;5331580;32;34263;-70
2023/04/09 09:30:53;;;;;;;;;;;;;;;11.48;49.09;101227.84;5290584;32;33590;-71
2023/04/09 09:33:55;;;;;;;;;;;;;;;11.28;49.98;101224.03;5321427;32;35971;-74
2023/04/09 09:36:57;;;;;;;;;;;;;;;12.44;47.16;101223.06;5293979;32;33770;-71
2023/04/09 09:39:59;;;;;;;;;;;;;;;13.08;44.41;101208.53;5294912;32;33595;-71
2023/04/09 09:43:01;;;;;;;;;;;;;;;11.78;47.27;101221.62;5294639;32;33969;-73
2023/04/09 09:46:03;;;;;;;;;;;;;;;13.07;45.07;101209.44;5308932;32;31821;-75
2023/04/09 09:49:05;;;;;;;;;;;;;;;11.20;49.69;101222.50;5322265;32;33045;-72
2023/04/09 09:52:08;;;;;;;;;;;;;;;11.21;50.43;101229.50;5294875;32;34190;-73
2023/04/09 09:55:10;;;;;;;;;;;;;;;11.36;49.90;101215.91;5308498;32;34308;-73
2023/04/09 09:58:16;;;;;;;;;;;;;;;11.19;50.96;101218.12;5293449;32;43132;-75
2023/04/09 10:01:19;;;;;;;;;;;;;;;10.93;51.72;101218.88;5306373;32;33165;-73
2023/04/09 10:04:21;;;;;;;;;;;;;;;11.00;50.90;101221.28;5295537;32;33535;-74
2023/04/09 10:07:23;;;;;;;;;;;;;;;11.63;49.60;101211.56;5312131;32;33600;-71
2023/04/09 10:10:25;;;;;;;;;;;;;;;12.30;46.88;101204.22;5308032;32;33822;-71
2023/04/09 10:13:37;;;;;;;;;;;;;;;10.51;52.00;101227.00;5308856;32;34841;-74
2023/04/09 10:16:39;;;;;;;;;;;;;;;10.39;53.01;101225.53;5323426;32;33510;-74
2023/04/09 10:19:42;;;;;;;;;;;;;;;10.80;52.03;101228.84;5308355;32;44579;-70
2023/04/09 10:22:46;;;;;;;;;;;;;;;12.31;47.94;101215.63;5307888;32;32497;-75
2023/04/09 10:25:48;;;;;;;;;;;;;;;11.42;50.89;101220.13;5322027;32;33439;-71
2023/04/09 10:29:06;;;;;;;;;;;;;;;12.38;48.20;101219.78;5302377;32;32390;-73
2023/04/09 10:32:09;;;;;;;;;;;;;;;10.78;51.66;101223.63;5309214;32;33383;-74
2023/04/09 10:35:10;;;;;;;;;;;;;;;10.70;52.17;101223.00;5328101;32;46784;-71
2023/04/09 10:38:13;;;;;;;;;;;;;;;10.03;53.97;101224.63;5336884;32;33412;-71
2023/04/09 10:41:22;;;;;;;;;;;;;;;11.03;50.94;101220.34;5312066;32;33578;-74
2023/04/09 10:44:27;;;;;;;;;;;;;;;12.13;47.76;101215.28;5324638;32;33693;-74
2023/04/09 10:47:32;;;;;;;;;;;;;;;13.20;45.00;101209.00;5335108;32;34073;-70
2023/04/09 10:50:35;;;;;;;;;;;;;;;11.86;48.28;101208.28;5325932;32;33844;-74
2023/04/09 10:53:37;;;;;;;;;;;;;;;11.89;48.53;101213.44;5309532;32;33474;-74
2023/04/09 10:56:39;;;;;;;;;;;;;;;11.42;49.89;101218.34;5296043;32;32725;-70
2023/04/09 10:59:43;;;;;;;;;;;;;;;12.01;49.05;101212.19;5318115;32;45419;-74
2023/04/09 11:03:12;;;;;;;;;;;;;;;13.95;43.91;101208.72;5300705;32;33871;-71
2023/04/09 11:06:16;;;;;;;;;;;;;;;13.90;43.53;101202.75;5302174;32;44770;-71
2023/04/09 11:09:18;;;;;;;;;;;;;;;14.07;43.24;101202.94;5309505;32;33741;-75
2023/04/09 11:12:20;;;;;;;;;;;;;;;13.13;44.53;101201.28;5310388;32;35011;-71
2023/04/09 11:15:22;;;;;;;;;;;;;;;13.23;44.18;101202.72;5323713;32;33885;-71
2023/04/09 11:18:25;;;;;;;;;;;;;;;12.31;47.15;101203.31;5297173;32;34807;-74
2023/04/09 11:21:30;;;;;;;;;;;;;;;11.13;50.79;101211.28;5294006;32;33653;-70
2023/04/09 11:24:39;;;;;;;;;;;;;;;10.50;53.42;101210.37;5325322;32;34664;-74
2023/04/09 11:27:43;;;;;;;;;;;;;;;11.98;49.30;101204.38;5322951;32;44686;-73
2023/04/09 11:30:49;;;;;;;;;;;;;;;12.00;48.28;101200.78;5308154;32;34512;-74
2023/04/09 11:33:51;;;;;;;;;;;;;;;12.76;46.72;101197.38;5299863;32;33487;-74
2023/04/09 11:36:53;;;;;;;;;;;;;;;11.58;50.23;101198.53;5316677;32;33187;-71
2023/04/09 11:39:57;;;;;;;;;;;;;;;11.84;49.65;101203.03;5303265;32;33416;-71
2023/04/09 11:42:59;;;;;;;;;;;;;;;12.32;47.57;101196.25;5309371;32;34123;-71
2023/04/09 11:46:01;;;;;;;;;;;;;;;12.51;48.26;101196.50;5323998;32;33891;-71
2023/04/09 11:49:03;;;;;;;;;;;;;;;11.99;49.04;101195.59;5294177;32;32896;-71
2023/04/09 11:52:05;;;;;;;;;;;;;;;10.97;51.91;101199.47;5313685;32;34948;-75
2023/04/09 11:55:08;;;;;;;;;;;;;;;12.24;48.41;101196.50;5326490;32;34291;-75
2023/04/09 11:58:10;;;;;;;;;;;;;;;12.29;47.89;101196.34;5311066;32;33671;-72
2023/04/09 12:01:12;;;;;;;;;;;;;;;12.92;45.84;101198.53;5317795;32;44957;-71
2023/04/09 12:04:18;;;;;;;;;;;;;;;13.10;45.24;101190.88;5290669;32;33864;-71
2023/04/09 12:07:20;;;;;;;;;;;;;;;15.06;40.94;101187.25;5327856;32;33842;-73
2023/04/09 12:10:25;;;;;;;;;;;;;;;15.06;40.90;101184.62;5309855;32;34651;-71
2023/04/09 12:13:33;;;;;;;;;;;;;;;13.67;43.46;101193.13;5322445;32;34205;-76
2023/04/09 12:16:35;;;;;;;;;;;;;;;15.11;40.74;101187.91;5310643;32;34076;-74
2023/04/09 12:19:37;;;;;;;;;;;;;;;13.33;44.53;101188.28;5309824;32;34075;-75
2023/04/09 12:22:40;;;;;;;;;;;;;;;13.23;45.78;101186.88;5327021;32;33348;-71
2023/04/09 12:25:42;;;;;;;;;;;;;;;12.51;46.70;101185.94;5327742;32;44601;-74
2023/04/09 12:28:44;;;;;;;;;;;;;;;12.74;46.69;101178.94;5315343;32;33454;-70
2023/04/09 12:31:46;;;;;;;;;;;;;;;15.78;39.69;101170.72;5289654;32;33450;-74
2023/04/09 12:34:48;;;;;;;;;;;;;;;17.29;37.01;101168.25;5309479;32;35667;-75
2023/04/09 12:37:50;;;;;;;;;;;;;;;17.11;36.19;101161.25;5310566;32;34071;-71
2023/04/09 12:40:52;;;;;;;;;;;;;;;16.87;36.06;101159.91;5307459;32;33679;-71
2023/04/09 12:43:54;;;;;;;;;;;;;;;18.01;34.23;101156.22;5320857;32;34499;-75
2023/04/09 12:46:56;;;;;;;;;;;;;;;18.82;32.93;101146.09;5295884;32;33783;-73
2023/04/09 12:49:58;;;;;;;;;;;;;;;19.01;32.82;101140.50;5321945;32;32996;-73
2023/04/09 12:53:00;;;;;;;;;;;;;;;20.25;30.52;101135.13;5322842;32;33912;-75
2023/04/09 12:56:02;;;;;;;;;;;;;;;21.04;29.07;101132.28;5341359;32;33166;-74
2023/04/09 12:59:05;;;;;;;;;;;;;;;17.39;33.93;101147.34;5298205;32;34226;-74
2023/04/09 13:02:07;;;;;;;;;;;;;;;15.89;36.73;101155.13;5309024;32;33041;-71
2023/04/09 13:05:09;;;;;;;;;;;;;;;16.28;35.86;101154.09;5327450;32;34036;-76
2023/04/09 13:08:11;;;;;;;;;;;;;;;15.98;36.20;101151.19;5309351;32;44472;-71
2023/04/09 13:11:13;;;;;;;;;;;;;;;14.19;40.77;101150.50;5322625;32;33082;-74
2023/04/09 13:14:15;;;;;;;;;;;;;;;14.58;38.80;101143.53;5305871;32;33495;-71
2023/04/09 13:17:17;;;;;;;;;;;;;;;15.20;38.20;101136.34;5307144;32;33399;-71
2023/04/09 13:20:19;;;;;;;;;;;;;;;14.10;40.13;101143.78;5297532;32;33360;-71
2023/04/09 13:23:21;;;;;;;;;;;;;;;13.46;40.76;101136.72;5316339;32;34263;-71
2023/04/09 13:26:23;;;;;;;;;;;;;;;12.93;42.32;101139.56;5341209;32;33685;-72
2023/04/09 13:29:28;;;;;;;;;;;;;;;13.43;41.49;101142.09;5317872;32;34334;-74
2023/04/09 13:32:30;;;;;;;;;;;;;;;14.04;40.03;101125.59;5308784;32;35139;-74
2023/04/09 13:35:32;;;;;;;;;;;;;;;13.92;39.90;101134.87;5311016;32;33905;-74
2023/04/09 13:38:36;;;;;;;;;;;;;;;14.77;38.68;101132.16;5320887;32;34420;-75
2023/04/09 13:41:39;;;;;;;;;;;;;;;15.37;36.88;101120.50;5311258;32;34172;-71
2023/04/09 13:44:43;;;;;;;;;;;;;;;14.30;39.05;101138.56;5294750;32;46448;-68
2023/04/09 13:47:48;;;;;;;;;;;;;;;13.45;41.35;101124.41;5307774;32;34414;-71
2023/04/09 13:50:50;;;;;;;;;;;;;;;12.67;42.81;101131.72;5310258;32;34348;-71
2023/04/09 13:53:52;;;;;;;;;;;;;;;13.63;41.66;101129.91;5338948;32;34404;-71
2023/04/09 13:56:54;;;;;;;;;;;;;;;13.70;40.58;101132.22;5328489;32;33379;-74
2023/04/09 13:59:56;;;;;;;;;;;;;;;12.75;42.83;101127.03;5334141;32;34160;-74
2023/04/09 14:02:58;;;;;;;;;;;;;;;14.42;39.29;101118.63;5314369;32;34645;-71
2023/04/09 14:06:00;;;;;;;;;;;;;;;12.95;41.59;101119.28;5320086;32;33884;-70
2023/04/09 14:09:02;;;;;;;;;;;;;;;13.25;41.57;101117.25;5319703;32;33394;-73
2023/04/09 14:12:04;;;;;;;;;;;;;;;13.82;40.77;101112.38;5307482;32;34982;-74
2023/04/09 14:15:07;;;;;;;;;;;;;;;12.91;42.66;101117.66;5330747;32;34979;-74
2023/04/09 14:18:08;;;;;;;;;;;;;;;13.66;41.18;101116.59;5319753;32;33455;-70
2023/04/09 14:21:10;;;;;;;;;;;;;;;13.36;41.07;101114.22;5332100;32;45304;-73
2023/04/09 14:24:12;;;;;;;;;;;;;;;13.17;41.36;101107.91;5302893;32;34633;-71
2023/04/09 14:27:14;;;;;;;;;;;;;;;13.55;40.28;101103.78;5308200;32;33576;-74
2023/04/09 14:30:16;;;;;;;;;;;;;;;13.07;41.22;101110.00;5306361;32;32995;-71
2023/04/09 14:33:18;;;;;;;;;;;;;;;14.11;38.76;101102.41;5306240;32;33847;-73
2023/04/09 14:36:20;;;;;;;;;;;;;;;14.83;37.50;101102.75;5308368;32;34067;-74
2023/04/09 14:39:22;;;;;;;;;;;;;;;14.50;37.53;101095.41;5295009;32;33957;-74
2023/04/09 14:42:24;;;;;;;;;;;;;;;12.83;40.70;101101.25;5313699;32;34042;-71
2023/04/09 14:45:26;;;;;;;;;;;;;;;13.77;38.86;101091.41;5294098;32;34051;-74
2023/04/09 14:48:31;;;;;;;;;;;;;;;13.40;39.55;101097.34;5306501;32;33758;-74
2023/04/09 14:51:33;;;;;;;;;;;;;;;14.05;38.56;101099.06;5322469;32;33888;-74
2023/04/09 14:54:36;;;;;;;;;;;;;;;14.20;37.43;101091.41;5319248;32;33527;-71
2023/04/09 14:57:38;;;;;;;;;;;;;;;14.68;37.08;101091.06;5337199;32;33495;-74
2023/04/09 15:00:42;;;;;;;;;;;;;;;13.76;37.85;101094.13;5324581;32;45442;-71
2023/04/09 15:03:44;;;;;;;;;;;;;;;14.03;37.66;101094.75;5324005;32;33488;-70
2023/04/09 15:06:46;;;;;;;;;;;;;;;13.29;38.93;101094.25;5318440;32;34467;-70
2023/04/09 15:09:49;;;;;;;;;;;;;;;12.97;40.25;101085.78;5310678;32;33107;-70
2023/04/09 15:12:51;;;;;;;;;;;;;;;13.23;39.68;101089.22;5309709;32;34014;-70
2023/04/09 15:15:53;;;;;;;;;;;;;;;13.19;39.93;101090.22;5310145;32;33432;-71
2023/04/09 15:18:57;;;;;;;;;;;;;;;14.12;37.93;101089.09;5323251;32;33294;-71
2023/04/09 15:21:59;;;;;;;;;;;;;;;13.04;40.58;101090.81;5300162;32;33507;-75
2023/04/09 15:25:01;;;;;;;;;;;;;;;12.63;43.99;101086.16;5324234;32;32898;-72
2023/04/09 15:28:03;;;;;;;;;;;;;;;13.01;42.49;101084.75;5338168;32;33674;-74
2023/04/09 15:31:05;;;;;;;;;;;;;;;14.01;41.97;101089.53;5280291;32;34296;-74
2023/04/09 15:34:07;;;;;;;;;;;;;;;12.86;43.82;101076.53;5333752;32;33623;-70
2023/04/09 15:37:09;;;;;;;;;;;;;;;13.94;41.40;101080.16;5330096;32;33445;-70
2023/04/09 15:40:11;;;;;;;;;;;;;;;13.30;43.30;101085.41;5335673;32;44742;-73
2023/04/09 15:43:13;;;;;;;;;;;;;;;13.91;41.93;101085.59;5325265;32;34162;-75
2023/04/09 15:46:16;;;;;;;;;;;;;;;13.20;43.55;101084.00;5329060;32;33135;-70